White Shark — 9LU2522 — position and weather

sailwx.info

Track history (hours):
 
Tides and Currents Weather Stations Pressure Air Temp Water Temp Dewpoint Dewpoint Depression Visibility Wind Speed Wind Dir Waves Ship Positions

White Shark

Last reported at 2017-Oct-15 17:22 UTC. Time now 2017-Oct-17 22:33 UTC.
Position N 35°43' W 000°38'.

Length 167 m; draft 9.9 m.

Type: Cargo ship. MMSI: 667001719.

Date/timePositionNaut miles runAvg speedWind from/ knotsBaromVisibWave heightAir tempDewpointWater temp
2017-Oct-15 17:22N 35°43' W 000°38'0 0.0
2017-Oct-15 17:00N 35°43' W 000°38'0 0.0
2017-Oct-15 16:25N 35°43' W 000°38'0 0.0
2017-Oct-15 14:51N 35°43' W 000°38'0 0.0
2017-Oct-15 06:05N 35°43' W 000°38'0 0.0
2017-Oct-15 02:17N 35°43' W 000°38'0 0.0
2017-Oct-15 01:59N 35°43' W 000°38'0 0.0
2017-Oct-14 18:18N 35°43' W 000°38'0 0.0
2017-Oct-14 18:00N 35°43' W 000°38'0 0.0
2017-Oct-14 17:30N 35°43' W 000°38'0 0.0
2017-Oct-14 17:00N 35°43' W 000°38'0 0.0
2017-Oct-14 16:29N 35°43' W 000°38'0 0.0
2017-Oct-14 08:56N 35°43' W 000°38'0 0.0
2017-Oct-14 08:26N 35°43' W 000°38'0 0.0
2017-Oct-14 07:51N 35°43' W 000°38'0 0.0
2017-Oct-14 06:58N 35°43' W 000°38'0 0.0
2017-Oct-14 06:30N 35°43' W 000°38'0 0.0
2017-Oct-14 05:37N 35°43' W 000°38'0 0.0
2017-Oct-14 05:29N 35°43' W 000°38'0 0.0
2017-Oct-14 04:36N 35°43' W 000°38'0 0.0
2017-Oct-14 04:30N 35°43' W 000°38'0 0.0
2017-Oct-14 04:00N 35°43' W 000°38'0 0.0
2017-Oct-14 03:30N 35°43' W 000°38'0 0.0
2017-Oct-13 23:18N 35°43' W 000°38'0 0.0
2017-Oct-13 21:27N 35°43' W 000°38'0 0.0
2017-Oct-13 20:45N 35°43' W 000°38'0 0.0
2017-Oct-13 20:12N 35°43' W 000°38'0 0.0
2017-Oct-13 19:58N 35°43' W 000°38'0 0.0
2017-Oct-12 18:17N 35°43' W 000°38'0 0.1
2017-Oct-12 17:57N 35°43' W 000°38'1 2.4
2017-Oct-12 17:30N 35°44' W 000°37'3 0.1
2017-Oct-11 19:58N 35°46' W 000°35'0 0.1
2017-Oct-11 18:10N 35°46' W 000°35'  
2017-Oct-07 18:42N 37°03' E 013°42'1 4.9
2017-Oct-07 18:30N 37°02' E 013°43'2 4.8
2017-Oct-07 18:00N 37°01' E 013°46'2 5.0
2017-Oct-07 17:30N 36°60' E 013°48'2 5.0
2017-Oct-07 17:00N 36°58' E 013°51'2 4.9
2017-Oct-07 16:30N 36°57' E 013°54'2 4.8
2017-Oct-07 16:00N 36°56' E 013°56'2 4.7
2017-Oct-07 15:30N 36°55' E 013°59'2 5.0
2017-Oct-07 15:00N 36°53' E 014°01'3 5.2
2017-Oct-07 14:30N 36°52' E 014°04'3 5.2
2017-Oct-07 14:00N 36°51' E 014°07'3 5.2
2017-Oct-07 13:30N 36°49' E 014°10'3 6.8
2017-Oct-07 13:00N 36°48' E 014°13'5 9.8
2017-Oct-07 12:30N 36°45' E 014°19'5 9.6
2017-Oct-07 12:00N 36°43' E 014°24'5 9.7
2017-Oct-07 11:30N 36°41' E 014°29'  
Track history (hours):
 
Tides and Currents Weather Stations Pressure Air Temp Water Temp Dewpoint Dewpoint Depression Visibility Wind Speed Wind Dir Waves Ship Positions

White Shark

Last reported at 2017-Oct-15 17:22 UTC. Time now 2017-Oct-17 22:33 UTC.
Position N 35°43' W 000°38'.

Length 167 m; draft 9.9 m.

Type: Cargo ship. MMSI: 667001719.

Date/timePositionNaut miles runAvg speedWind from/ knotsBaromVisibWave heightAir tempDewpointWater temp
2017-Oct-15 17:22N 35°43' W 000°38'0 0.0
2017-Oct-15 17:00N 35°43' W 000°38'0 0.0
2017-Oct-15 16:25N 35°43' W 000°38'0 0.0
2017-Oct-15 14:51N 35°43' W 000°38'0 0.0
2017-Oct-15 06:05N 35°43' W 000°38'0 0.0
2017-Oct-15 02:17N 35°43' W 000°38'0 0.0
2017-Oct-15 01:59N 35°43' W 000°38'0 0.0
2017-Oct-14 18:18N 35°43' W 000°38'0 0.0
2017-Oct-14 18:00N 35°43' W 000°38'0 0.0
2017-Oct-14 17:30N 35°43' W 000°38'0 0.0
2017-Oct-14 17:00N 35°43' W 000°38'0 0.0
2017-Oct-14 16:29N 35°43' W 000°38'0 0.0
2017-Oct-14 08:56N 35°43' W 000°38'0 0.0
2017-Oct-14 08:26N 35°43' W 000°38'0 0.0
2017-Oct-14 07:51N 35°43' W 000°38'0 0.0
2017-Oct-14 06:58N 35°43' W 000°38'0 0.0
2017-Oct-14 06:30N 35°43' W 000°38'0 0.0
2017-Oct-14 05:37N 35°43' W 000°38'0 0.0
2017-Oct-14 05:29N 35°43' W 000°38'0 0.0
2017-Oct-14 04:36N 35°43' W 000°38'0 0.0
2017-Oct-14 04:30N 35°43' W 000°38'0 0.0
2017-Oct-14 04:00N 35°43' W 000°38'0 0.0
2017-Oct-14 03:30N 35°43' W 000°38'0 0.0
2017-Oct-13 23:18N 35°43' W 000°38'0 0.0
2017-Oct-13 21:27N 35°43' W 000°38'0 0.0
2017-Oct-13 20:45N 35°43' W 000°38'0 0.0
2017-Oct-13 20:12N 35°43' W 000°38'0 0.0
2017-Oct-13 19:58N 35°43' W 000°38'0 0.0
2017-Oct-12 18:17N 35°43' W 000°38'0 0.1
2017-Oct-12 17:57N 35°43' W 000°38'1 2.4
2017-Oct-12 17:30N 35°44' W 000°37'3 0.1
2017-Oct-11 19:58N 35°46' W 000°35'0 0.1
2017-Oct-11 18:10N 35°46' W 000°35'  
2017-Oct-07 18:42N 37°03' E 013°42'1 4.9
2017-Oct-07 18:30N 37°02' E 013°43'2 4.8
2017-Oct-07 18:00N 37°01' E 013°46'2 5.0
2017-Oct-07 17:30N 36°60' E 013°48'2 5.0
2017-Oct-07 17:00N 36°58' E 013°51'2 4.9
2017-Oct-07 16:30N 36°57' E 013°54'2 4.8
2017-Oct-07 16:00N 36°56' E 013°56'2 4.7
2017-Oct-07 15:30N 36°55' E 013°59'2 5.0
2017-Oct-07 15:00N 36°53' E 014°01'3 5.2
2017-Oct-07 14:30N 36°52' E 014°04'3 5.2
2017-Oct-07 14:00N 36°51' E 014°07'3 5.2
2017-Oct-07 13:30N 36°49' E 014°10'3 6.8
2017-Oct-07 13:00N 36°48' E 014°13'5 9.8
2017-Oct-07 12:30N 36°45' E 014°19'5 9.6
2017-Oct-07 12:00N 36°43' E 014°24'5 9.7
2017-Oct-07 11:30N 36°41' E 014°29'  

Dump ship's entire track history